sensor_id;sensor_type;location;lat;lon;timestamp;P1;durP1;ratioP1;P2;durP2;ratioP2
31716;SDS011;18301;51.076;17.046;2023-12-14T00:00:43;64.90;;;29.08;;
31716;SDS011;18301;51.076;17.046;2023-12-14T00:05:44;65.88;;;28.70;;
31716;SDS011;18301;51.076;17.046;2023-12-14T00:10:46;63.15;;;28.67;;
31716;SDS011;18301;51.076;17.046;2023-12-14T00:15:48;60.47;;;27.98;;
31716;SDS011;18301;51.076;17.046;2023-12-14T00:20:51;58.90;;;27.25;;
31716;SDS011;18301;51.076;17.046;2023-12-14T00:25:53;57.00;;;27.38;;
31716;SDS011;18301;51.076;17.046;2023-12-14T00:30:55;60.70;;;28.30;;
31716;SDS011;18301;51.076;17.046;2023-12-14T00:35:57;61.35;;;28.05;;
31716;SDS011;18301;51.076;17.046;2023-12-14T00:40:59;65.82;;;28.80;;
31716;SDS011;18301;51.076;17.046;2023-12-14T00:46:00;66.10;;;29.88;;
31716;SDS011;18301;51.076;17.046;2023-12-14T00:51:02;60.47;;;28.58;;
31716;SDS011;18301;51.076;17.046;2023-12-14T00:56:04;63.85;;;29.25;;
31716;SDS011;18301;51.076;17.046;2023-12-14T01:01:08;63.13;;;29.67;;
31716;SDS011;18301;51.076;17.046;2023-12-14T01:06:10;64.78;;;29.08;;
31716;SDS011;18301;51.076;17.046;2023-12-14T01:11:12;58.13;;;27.75;;
31716;SDS011;18301;51.076;17.046;2023-12-14T01:16:13;62.35;;;27.80;;
31716;SDS011;18301;51.076;17.046;2023-12-14T01:21:15;63.22;;;28.77;;
31716;SDS011;18301;51.076;17.046;2023-12-14T01:26:17;64.45;;;28.33;;
31716;SDS011;18301;51.076;17.046;2023-12-14T01:31:19;64.72;;;29.48;;
31716;SDS011;18301;51.076;17.046;2023-12-14T01:36:25;67.10;;;29.33;;
31716;SDS011;18301;51.076;17.046;2023-12-14T01:41:27;71.65;;;30.05;;
31716;SDS011;18301;51.076;17.046;2023-12-14T01:46:29;70.50;;;30.92;;
31716;SDS011;18301;51.076;17.046;2023-12-14T01:51:30;68.72;;;30.90;;
31716;SDS011;18301;51.076;17.046;2023-12-14T01:56:32;68.60;;;30.63;;
31716;SDS011;18301;51.076;17.046;2023-12-14T02:01:43;68.55;;;29.63;;
31716;SDS011;18301;51.076;17.046;2023-12-14T02:06:46;74.57;;;32.00;;
31716;SDS011;18301;51.076;17.046;2023-12-14T02:11:48;68.55;;;29.98;;
31716;SDS011;18301;51.076;17.046;2023-12-14T02:16:50;67.68;;;30.25;;
31716;SDS011;18301;51.076;17.046;2023-12-14T02:21:51;70.47;;;29.73;;
31716;SDS011;18301;51.076;17.046;2023-12-14T02:26:53;68.03;;;30.63;;
31716;SDS011;18301;51.076;17.046;2023-12-14T02:32:04;69.95;;;29.63;;
31716;SDS011;18301;51.076;17.046;2023-12-14T02:37:06;60.83;;;28.60;;
31716;SDS011;18301;51.076;17.046;2023-12-14T02:42:08;64.13;;;28.60;;
31716;SDS011;18301;51.076;17.046;2023-12-14T02:47:09;65.78;;;31.17;;
31716;SDS011;18301;51.076;17.046;2023-12-14T02:52:11;57.90;;;26.70;;
31716;SDS011;18301;51.076;17.046;2023-12-14T02:57:13;56.35;;;25.88;;
31716;SDS011;18301;51.076;17.046;2023-12-14T03:02:15;58.08;;;27.30;;
31716;SDS011;18301;51.076;17.046;2023-12-14T03:07:16;54.95;;;25.65;;
31716;SDS011;18301;51.076;17.046;2023-12-14T03:12:18;56.40;;;25.58;;
31716;SDS011;18301;51.076;17.046;2023-12-14T03:17:20;55.25;;;25.08;;
31716;SDS011;18301;51.076;17.046;2023-12-14T03:22:22;59.17;;;27.25;;
31716;SDS011;18301;51.076;17.046;2023-12-14T03:27:23;57.45;;;25.65;;
31716;SDS011;18301;51.076;17.046;2023-12-14T03:32:26;55.08;;;25.00;;
31716;SDS011;18301;51.076;17.046;2023-12-14T03:37:27;57.42;;;27.38;;
31716;SDS011;18301;51.076;17.046;2023-12-14T03:42:29;55.85;;;24.17;;
31716;SDS011;18301;51.076;17.046;2023-12-14T03:47:30;56.00;;;25.92;;
31716;SDS011;18301;51.076;17.046;2023-12-14T03:52:32;58.50;;;26.35;;
31716;SDS011;18301;51.076;17.046;2023-12-14T03:57:34;59.25;;;25.73;;
31716;SDS011;18301;51.076;17.046;2023-12-14T04:02:36;56.58;;;25.33;;
31716;SDS011;18301;51.076;17.046;2023-12-14T04:07:38;58.83;;;25.33;;
31716;SDS011;18301;51.076;17.046;2023-12-14T04:12:44;54.15;;;23.55;;
31716;SDS011;18301;51.076;17.046;2023-12-14T04:17:45;51.47;;;22.38;;
31716;SDS011;18301;51.076;17.046;2023-12-14T04:22:47;53.72;;;22.90;;
31716;SDS011;18301;51.076;17.046;2023-12-14T04:27:50;54.45;;;21.92;;
31716;SDS011;18301;51.076;17.046;2023-12-14T04:32:52;51.88;;;23.02;;
31716;SDS011;18301;51.076;17.046;2023-12-14T04:37:54;53.95;;;23.02;;
31716;SDS011;18301;51.076;17.046;2023-12-14T04:42:56;55.35;;;23.83;;
31716;SDS011;18301;51.076;17.046;2023-12-14T04:47:58;55.65;;;23.30;;
31716;SDS011;18301;51.076;17.046;2023-12-14T04:53:00;52.65;;;21.58;;
31716;SDS011;18301;51.076;17.046;2023-12-14T04:58:01;58.03;;;25.02;;
31716;SDS011;18301;51.076;17.046;2023-12-14T05:03:03;55.35;;;23.15;;
31716;SDS011;18301;51.076;17.046;2023-12-14T05:08:05;51.53;;;21.88;;
31716;SDS011;18301;51.076;17.046;2023-12-14T05:13:07;49.22;;;21.75;;
31716;SDS011;18301;51.076;17.046;2023-12-14T05:18:08;44.13;;;20.60;;
31716;SDS011;18301;51.076;17.046;2023-12-14T05:23:14;44.83;;;21.13;;
31716;SDS011;18301;51.076;17.046;2023-12-14T05:28:16;47.40;;;21.33;;
31716;SDS011;18301;51.076;17.046;2023-12-14T05:33:17;45.45;;;20.98;;
31716;SDS011;18301;51.076;17.046;2023-12-14T05:38:19;46.42;;;21.85;;
31716;SDS011;18301;51.076;17.046;2023-12-14T05:43:21;52.30;;;23.40;;
31716;SDS011;18301;51.076;17.046;2023-12-14T05:48:23;51.80;;;22.90;;
31716;SDS011;18301;51.076;17.046;2023-12-14T05:53:24;47.33;;;22.17;;
31716;SDS011;18301;51.076;17.046;2023-12-14T05:58:26;48.42;;;21.50;;
31716;SDS011;18301;51.076;17.046;2023-12-14T06:03:28;50.53;;;22.48;;
31716;SDS011;18301;51.076;17.046;2023-12-14T06:08:29;53.78;;;24.45;;
31716;SDS011;18301;51.076;17.046;2023-12-14T06:13:32;45.75;;;21.52;;
31716;SDS011;18301;51.076;17.046;2023-12-14T06:18:34;50.25;;;22.48;;
31716;SDS011;18301;51.076;17.046;2023-12-14T06:23:36;47.22;;;21.73;;
31716;SDS011;18301;51.076;17.046;2023-12-14T06:28:37;46.05;;;20.30;;
31716;SDS011;18301;51.076;17.046;2023-12-14T06:33:39;51.47;;;22.48;;
31716;SDS011;18301;51.076;17.046;2023-12-14T06:38:41;48.75;;;21.48;;
31716;SDS011;18301;51.076;17.046;2023-12-14T06:43:43;42.70;;;20.52;;
31716;SDS011;18301;51.076;17.046;2023-12-14T06:48:45;39.63;;;17.67;;
31716;SDS011;18301;51.076;17.046;2023-12-14T06:53:47;37.25;;;17.92;;
31716;SDS011;18301;51.076;17.046;2023-12-14T06:58:49;34.00;;;16.92;;
31716;SDS011;18301;51.076;17.046;2023-12-14T07:03:51;33.20;;;16.85;;
31716;SDS011;18301;51.076;17.046;2023-12-14T07:08:52;38.28;;;17.58;;
31716;SDS011;18301;51.076;17.046;2023-12-14T07:13:54;38.03;;;17.20;;
31716;SDS011;18301;51.076;17.046;2023-12-14T07:18:56;34.78;;;17.23;;
31716;SDS011;18301;51.076;17.046;2023-12-14T07:23:57;33.30;;;14.93;;
31716;SDS011;18301;51.076;17.046;2023-12-14T07:29:00;32.30;;;15.80;;
31716;SDS011;18301;51.076;17.046;2023-12-14T07:34:02;30.15;;;13.85;;
31716;SDS011;18301;51.076;17.046;2023-12-14T07:39:03;29.52;;;13.75;;
31716;SDS011;18301;51.076;17.046;2023-12-14T07:44:05;28.13;;;14.23;;
31716;SDS011;18301;51.076;17.046;2023-12-14T07:49:07;34.03;;;15.50;;
31716;SDS011;18301;51.076;17.046;2023-12-14T07:54:09;36.38;;;16.75;;
31716;SDS011;18301;51.076;17.046;2023-12-14T07:59:11;35.03;;;15.57;;
31716;SDS011;18301;51.076;17.046;2023-12-14T08:04:13;38.20;;;15.68;;
31716;SDS011;18301;51.076;17.046;2023-12-14T08:09:15;37.67;;;17.08;;
31716;SDS011;18301;51.076;17.046;2023-12-14T08:14:17;38.85;;;17.70;;
31716;SDS011;18301;51.076;17.046;2023-12-14T08:19:19;40.80;;;17.85;;
31716;SDS011;18301;51.076;17.046;2023-12-14T08:24:21;40.75;;;17.83;;
31716;SDS011;18301;51.076;17.046;2023-12-14T08:29:22;39.45;;;18.25;;
31716;SDS011;18301;51.076;17.046;2023-12-14T08:34:25;40.70;;;18.67;;
31716;SDS011;18301;51.076;17.046;2023-12-14T08:39:26;40.15;;;18.10;;
31716;SDS011;18301;51.076;17.046;2023-12-14T08:44:28;39.83;;;18.00;;
31716;SDS011;18301;51.076;17.046;2023-12-14T08:49:30;38.70;;;18.42;;
31716;SDS011;18301;51.076;17.046;2023-12-14T08:54:32;39.30;;;17.40;;
31716;SDS011;18301;51.076;17.046;2023-12-14T08:59:33;38.75;;;18.38;;
31716;SDS011;18301;51.076;17.046;2023-12-14T09:04:35;43.13;;;18.05;;
31716;SDS011;18301;51.076;17.046;2023-12-14T09:09:37;41.05;;;18.15;;
31716;SDS011;18301;51.076;17.046;2023-12-14T09:14:38;41.97;;;18.50;;
31716;SDS011;18301;51.076;17.046;2023-12-14T09:19:40;43.72;;;18.75;;
31716;SDS011;18301;51.076;17.046;2023-12-14T09:24:42;38.15;;;17.27;;
31716;SDS011;18301;51.076;17.046;2023-12-14T09:29:43;33.78;;;16.10;;
31716;SDS011;18301;51.076;17.046;2023-12-14T09:34:45;36.22;;;17.20;;
31716;SDS011;18301;51.076;17.046;2023-12-14T09:39:47;32.47;;;15.40;;
31716;SDS011;18301;51.076;17.046;2023-12-14T09:44:49;35.10;;;15.70;;
31716;SDS011;18301;51.076;17.046;2023-12-14T09:49:51;33.30;;;15.93;;
31716;SDS011;18301;51.076;17.046;2023-12-14T09:54:54;27.35;;;14.77;;
31716;SDS011;18301;51.076;17.046;2023-12-14T09:59:56;25.67;;;13.27;;
31716;SDS011;18301;51.076;17.046;2023-12-14T10:04:58;28.40;;;13.43;;
31716;SDS011;18301;51.076;17.046;2023-12-14T10:10:09;26.02;;;13.50;;
31716;SDS011;18301;51.076;17.046;2023-12-14T10:15:15;23.92;;;12.25;;
31716;SDS011;18301;51.076;17.046;2023-12-14T10:20:20;23.00;;;12.90;;
31716;SDS011;18301;51.076;17.046;2023-12-14T10:25:23;24.92;;;13.50;;
31716;SDS011;18301;51.076;17.046;2023-12-14T10:30:25;24.83;;;13.60;;
31716;SDS011;18301;51.076;17.046;2023-12-14T10:35:26;29.20;;;14.43;;
31716;SDS011;18301;51.076;17.046;2023-12-14T10:40:28;32.08;;;15.85;;
31716;SDS011;18301;51.076;17.046;2023-12-14T10:45:34;26.85;;;14.38;;
31716;SDS011;18301;51.076;17.046;2023-12-14T10:50:37;31.55;;;14.55;;
31716;SDS011;18301;51.076;17.046;2023-12-14T10:55:43;30.08;;;14.40;;
31716;SDS011;18301;51.076;17.046;2023-12-14T11:00:58;26.75;;;13.13;;
31716;SDS011;18301;51.076;17.046;2023-12-14T11:06:03;26.25;;;13.95;;
31716;SDS011;18301;51.076;17.046;2023-12-14T11:11:16;28.55;;;14.55;;
31716;SDS011;18301;51.076;17.046;2023-12-14T11:16:22;28.58;;;13.57;;
31716;SDS011;18301;51.076;17.046;2023-12-14T11:21:26;26.70;;;13.50;;
31716;SDS011;18301;51.076;17.046;2023-12-14T11:26:27;23.77;;;12.90;;
31716;SDS011;18301;51.076;17.046;2023-12-14T11:31:30;28.17;;;14.55;;
31716;SDS011;18301;51.076;17.046;2023-12-14T11:36:32;27.95;;;13.85;;
31716;SDS011;18301;51.076;17.046;2023-12-14T11:41:33;26.58;;;13.30;;
31716;SDS011;18301;51.076;17.046;2023-12-14T11:46:36;25.83;;;13.60;;
31716;SDS011;18301;51.076;17.046;2023-12-14T11:51:38;26.17;;;13.27;;
31716;SDS011;18301;51.076;17.046;2023-12-14T11:56:47;25.80;;;13.40;;
31716;SDS011;18301;51.076;17.046;2023-12-14T12:01:57;24.85;;;12.35;;
31716;SDS011;18301;51.076;17.046;2023-12-14T12:07:03;24.50;;;12.27;;
31716;SDS011;18301;51.076;17.046;2023-12-14T12:12:10;25.13;;;13.80;;
31716;SDS011;18301;51.076;17.046;2023-12-14T12:17:13;28.77;;;14.43;;
31716;SDS011;18301;51.076;17.046;2023-12-14T12:22:17;23.30;;;13.02;;
31716;SDS011;18301;51.076;17.046;2023-12-14T12:27:18;28.92;;;13.63;;
31716;SDS011;18301;51.076;17.046;2023-12-14T12:32:20;27.98;;;14.57;;
31716;SDS011;18301;51.076;17.046;2023-12-14T12:37:22;30.67;;;15.23;;
31716;SDS011;18301;51.076;17.046;2023-12-14T12:42:24;26.00;;;13.88;;
31716;SDS011;18301;51.076;17.046;2023-12-14T12:47:27;27.88;;;13.45;;
31716;SDS011;18301;51.076;17.046;2023-12-14T12:52:29;28.40;;;13.90;;
31716;SDS011;18301;51.076;17.046;2023-12-14T12:57:30;23.95;;;12.27;;
31716;SDS011;18301;51.076;17.046;2023-12-14T13:02:32;20.38;;;10.73;;
31716;SDS011;18301;51.076;17.046;2023-12-14T13:07:34;16.60;;;9.00;;
31716;SDS011;18301;51.076;17.046;2023-12-14T13:12:39;15.43;;;8.07;;
31716;SDS011;18301;51.076;17.046;2023-12-14T13:17:40;14.00;;;7.90;;
31716;SDS011;18301;51.076;17.046;2023-12-14T13:22:42;14.02;;;8.50;;
31716;SDS011;18301;51.076;17.046;2023-12-14T13:27:44;14.73;;;7.93;;
31716;SDS011;18301;51.076;17.046;2023-12-14T13:32:46;17.85;;;9.00;;
31716;SDS011;18301;51.076;17.046;2023-12-14T13:37:48;15.13;;;8.93;;
31716;SDS011;18301;51.076;17.046;2023-12-14T13:42:49;17.65;;;9.60;;
31716;SDS011;18301;51.076;17.046;2023-12-14T13:48:06;16.73;;;9.10;;
31716;SDS011;18301;51.076;17.046;2023-12-14T13:53:09;19.65;;;9.40;;
31716;SDS011;18301;51.076;17.046;2023-12-14T13:58:10;16.05;;;8.80;;
31716;SDS011;18301;51.076;17.046;2023-12-14T14:03:12;19.13;;;8.80;;
31716;SDS011;18301;51.076;17.046;2023-12-14T14:08:14;24.05;;;9.45;;
31716;SDS011;18301;51.076;17.046;2023-12-14T14:13:18;17.10;;;8.88;;
31716;SDS011;18301;51.076;17.046;2023-12-14T14:18:22;18.52;;;9.65;;
31716;SDS011;18301;51.076;17.046;2023-12-14T14:23:24;18.17;;;9.05;;
31716;SDS011;18301;51.076;17.046;2023-12-14T14:28:26;20.20;;;10.18;;
31716;SDS011;18301;51.076;17.046;2023-12-14T14:33:27;19.70;;;9.93;;
31716;SDS011;18301;51.076;17.046;2023-12-14T14:38:29;21.08;;;10.45;;
31716;SDS011;18301;51.076;17.046;2023-12-14T14:43:31;19.42;;;10.60;;
31716;SDS011;18301;51.076;17.046;2023-12-14T14:48:33;18.65;;;10.13;;
31716;SDS011;18301;51.076;17.046;2023-12-14T14:53:35;18.40;;;9.07;;
31716;SDS011;18301;51.076;17.046;2023-12-14T14:58:38;18.70;;;9.15;;
31716;SDS011;18301;51.076;17.046;2023-12-14T15:03:40;17.60;;;9.35;;
31716;SDS011;18301;51.076;17.046;2023-12-14T15:08:42;17.20;;;9.43;;
31716;SDS011;18301;51.076;17.046;2023-12-14T15:13:44;20.35;;;10.15;;
31716;SDS011;18301;51.076;17.046;2023-12-14T15:18:46;16.83;;;8.77;;
31716;SDS011;18301;51.076;17.046;2023-12-14T15:23:48;18.48;;;9.52;;
31716;SDS011;18301;51.076;17.046;2023-12-14T15:28:50;21.85;;;10.15;;
31716;SDS011;18301;51.076;17.046;2023-12-14T15:33:52;19.92;;;10.60;;
31716;SDS011;18301;51.076;17.046;2023-12-14T15:38:53;20.35;;;10.15;;
31716;SDS011;18301;51.076;17.046;2023-12-14T15:43:55;20.52;;;9.52;;
31716;SDS011;18301;51.076;17.046;2023-12-14T15:48:57;23.08;;;11.00;;
31716;SDS011;18301;51.076;17.046;2023-12-14T15:53:58;21.05;;;10.50;;
31716;SDS011;18301;51.076;17.046;2023-12-14T15:59:00;26.40;;;11.57;;
31716;SDS011;18301;51.076;17.046;2023-12-14T16:04:02;20.02;;;10.90;;
31716;SDS011;18301;51.076;17.046;2023-12-14T16:09:04;23.25;;;12.85;;
31716;SDS011;18301;51.076;17.046;2023-12-14T16:14:05;23.17;;;12.50;;
31716;SDS011;18301;51.076;17.046;2023-12-14T16:19:07;23.50;;;13.05;;
31716;SDS011;18301;51.076;17.046;2023-12-14T16:24:09;24.45;;;13.10;;
31716;SDS011;18301;51.076;17.046;2023-12-14T16:29:10;22.13;;;12.68;;
31716;SDS011;18301;51.076;17.046;2023-12-14T16:34:13;26.35;;;13.13;;
31716;SDS011;18301;51.076;17.046;2023-12-14T16:39:15;23.52;;;12.65;;
31716;SDS011;18301;51.076;17.046;2023-12-14T16:44:17;25.67;;;11.73;;
31716;SDS011;18301;51.076;17.046;2023-12-14T16:49:19;22.25;;;11.77;;
31716;SDS011;18301;51.076;17.046;2023-12-14T16:54:21;21.02;;;11.10;;
31716;SDS011;18301;51.076;17.046;2023-12-14T16:59:22;19.02;;;10.85;;
31716;SDS011;18301;51.076;17.046;2023-12-14T17:04:24;23.33;;;12.52;;
31716;SDS011;18301;51.076;17.046;2023-12-14T17:09:26;25.77;;;13.57;;
31716;SDS011;18301;51.076;17.046;2023-12-14T17:14:29;24.00;;;13.10;;
31716;SDS011;18301;51.076;17.046;2023-12-14T17:19:30;29.85;;;15.45;;
31716;SDS011;18301;51.076;17.046;2023-12-14T17:24:32;31.10;;;16.42;;
31716;SDS011;18301;51.076;17.046;2023-12-14T17:29:34;30.08;;;14.98;;
31716;SDS011;18301;51.076;17.046;2023-12-14T17:34:35;32.10;;;17.50;;
31716;SDS011;18301;51.076;17.046;2023-12-14T17:39:37;29.70;;;16.08;;
31716;SDS011;18301;51.076;17.046;2023-12-14T17:44:39;33.85;;;17.58;;
31716;SDS011;18301;51.076;17.046;2023-12-14T17:49:41;33.10;;;17.80;;
31716;SDS011;18301;51.076;17.046;2023-12-14T17:54:43;38.72;;;18.73;;
31716;SDS011;18301;51.076;17.046;2023-12-14T17:59:44;36.22;;;18.73;;
31716;SDS011;18301;51.076;17.046;2023-12-14T18:04:46;34.88;;;18.15;;
31716;SDS011;18301;51.076;17.046;2023-12-14T18:09:48;32.50;;;16.48;;
31716;SDS011;18301;51.076;17.046;2023-12-14T18:14:49;34.50;;;17.63;;
31716;SDS011;18301;51.076;17.046;2023-12-14T18:19:51;33.65;;;17.02;;
31716;SDS011;18301;51.076;17.046;2023-12-14T18:24:56;32.08;;;16.40;;
31716;SDS011;18301;51.076;17.046;2023-12-14T18:29:58;29.17;;;15.38;;
31716;SDS011;18301;51.076;17.046;2023-12-14T18:35:00;29.65;;;15.27;;
31716;SDS011;18301;51.076;17.046;2023-12-14T18:40:02;30.90;;;16.02;;
31716;SDS011;18301;51.076;17.046;2023-12-14T18:45:04;28.40;;;15.55;;
31716;SDS011;18301;51.076;17.046;2023-12-14T18:50:07;31.33;;;16.35;;
31716;SDS011;18301;51.076;17.046;2023-12-14T18:55:09;32.10;;;17.05;;
31716;SDS011;18301;51.076;17.046;2023-12-14T19:00:12;36.53;;;18.42;;
31716;SDS011;18301;51.076;17.046;2023-12-14T19:05:14;33.42;;;17.88;;
31716;SDS011;18301;51.076;17.046;2023-12-14T19:10:17;35.53;;;19.33;;
31716;SDS011;18301;51.076;17.046;2023-12-14T19:15:20;38.30;;;19.35;;
31716;SDS011;18301;51.076;17.046;2023-12-14T19:20:22;35.63;;;17.52;;
31716;SDS011;18301;51.076;17.046;2023-12-14T19:25:24;30.55;;;16.45;;
31716;SDS011;18301;51.076;17.046;2023-12-14T19:30:25;27.70;;;14.38;;
31716;SDS011;18301;51.076;17.046;2023-12-14T19:35:27;23.77;;;14.07;;
31716;SDS011;18301;51.076;17.046;2023-12-14T19:40:29;23.05;;;13.20;;
31716;SDS011;18301;51.076;17.046;2023-12-14T19:45:30;22.95;;;12.40;;
31716;SDS011;18301;51.076;17.046;2023-12-14T19:50:32;21.88;;;10.77;;
31716;SDS011;18301;51.076;17.046;2023-12-14T19:55:34;20.88;;;10.23;;
31716;SDS011;18301;51.076;17.046;2023-12-14T20:00:35;22.55;;;12.02;;
31716;SDS011;18301;51.076;17.046;2023-12-14T20:05:37;25.33;;;12.50;;
31716;SDS011;18301;51.076;17.046;2023-12-14T20:10:45;25.58;;;13.27;;
31716;SDS011;18301;51.076;17.046;2023-12-14T20:15:46;33.92;;;17.30;;
31716;SDS011;18301;51.076;17.046;2023-12-14T20:20:50;24.40;;;12.98;;
31716;SDS011;18301;51.076;17.046;2023-12-14T20:25:52;26.98;;;13.93;;
31716;SDS011;18301;51.076;17.046;2023-12-14T20:30:54;22.80;;;12.38;;
31716;SDS011;18301;51.076;17.046;2023-12-14T20:35:56;23.67;;;12.50;;
31716;SDS011;18301;51.076;17.046;2023-12-14T20:40:57;22.17;;;11.85;;
31716;SDS011;18301;51.076;17.046;2023-12-14T20:45:59;24.35;;;12.75;;
31716;SDS011;18301;51.076;17.046;2023-12-14T20:51:01;23.85;;;12.13;;
31716;SDS011;18301;51.076;17.046;2023-12-14T20:56:02;23.60;;;12.57;;
31716;SDS011;18301;51.076;17.046;2023-12-14T21:01:04;23.40;;;12.88;;
31716;SDS011;18301;51.076;17.046;2023-12-14T21:06:07;23.33;;;12.40;;
31716;SDS011;18301;51.076;17.046;2023-12-14T21:11:09;22.58;;;12.15;;
31716;SDS011;18301;51.076;17.046;2023-12-14T21:16:10;24.08;;;12.15;;
31716;SDS011;18301;51.076;17.046;2023-12-14T21:21:12;24.05;;;12.18;;
31716;SDS011;18301;51.076;17.046;2023-12-14T21:26:15;24.67;;;12.82;;
31716;SDS011;18301;51.076;17.046;2023-12-14T21:31:17;22.65;;;11.55;;
31716;SDS011;18301;51.076;17.046;2023-12-14T21:36:19;22.58;;;12.05;;
31716;SDS011;18301;51.076;17.046;2023-12-14T21:41:21;23.70;;;12.57;;
31716;SDS011;18301;51.076;17.046;2023-12-14T21:46:22;28.30;;;13.02;;
31716;SDS011;18301;51.076;17.046;2023-12-14T21:51:24;24.50;;;11.82;;
31716;SDS011;18301;51.076;17.046;2023-12-14T21:56:26;25.77;;;13.00;;
31716;SDS011;18301;51.076;17.046;2023-12-14T22:01:27;26.63;;;13.27;;
31716;SDS011;18301;51.076;17.046;2023-12-14T22:06:29;26.88;;;12.50;;
31716;SDS011;18301;51.076;17.046;2023-12-14T22:11:31;24.17;;;12.05;;
31716;SDS011;18301;51.076;17.046;2023-12-14T22:16:33;22.50;;;11.30;;
31716;SDS011;18301;51.076;17.046;2023-12-14T22:21:35;25.60;;;12.75;;
31716;SDS011;18301;51.076;17.046;2023-12-14T22:26:36;24.33;;;12.05;;
31716;SDS011;18301;51.076;17.046;2023-12-14T22:31:38;24.95;;;12.85;;
31716;SDS011;18301;51.076;17.046;2023-12-14T22:36:40;24.85;;;11.57;;
31716;SDS011;18301;51.076;17.046;2023-12-14T22:41:41;24.08;;;12.57;;
31716;SDS011;18301;51.076;17.046;2023-12-14T22:46:43;24.20;;;12.32;;
31716;SDS011;18301;51.076;17.046;2023-12-14T22:51:45;27.60;;;13.20;;
31716;SDS011;18301;51.076;17.046;2023-12-14T22:56:46;25.35;;;12.40;;
31716;SDS011;18301;51.076;17.046;2023-12-14T23:01:48;29.73;;;13.13;;
31716;SDS011;18301;51.076;17.046;2023-12-14T23:06:51;27.90;;;12.77;;
31716;SDS011;18301;51.076;17.046;2023-12-14T23:11:53;27.85;;;14.02;;
31716;SDS011;18301;51.076;17.046;2023-12-14T23:16:55;27.30;;;12.63;;
31716;SDS011;18301;51.076;17.046;2023-12-14T23:21:57;22.85;;;12.25;;
31716;SDS011;18301;51.076;17.046;2023-12-14T23:27:00;27.27;;;12.77;;
31716;SDS011;18301;51.076;17.046;2023-12-14T23:32:02;25.92;;;12.38;;
31716;SDS011;18301;51.076;17.046;2023-12-14T23:37:04;27.90;;;13.43;;
31716;SDS011;18301;51.076;17.046;2023-12-14T23:42:06;25.27;;;12.18;;
31716;SDS011;18301;51.076;17.046;2023-12-14T23:47:07;22.45;;;12.07;;
31716;SDS011;18301;51.076;17.046;2023-12-14T23:52:10;25.48;;;13.05;;
31716;SDS011;18301;51.076;17.046;2023-12-14T23:57:11;23.70;;;12.00;;
